Time;durP1;ratioP1;P1;durP2;ratioP2;P2;SDS_P1;SDS_P2;PMS_P1;PMS_P2;Temp;Humidity;BMP_temperature;BMP_pressure;BME280_temperature;BME280_humidity;BME280_pressure;Samples;Min_cycle;Max_cycle;Signal;HPM_P1;HPM_P2
2024/02/13 00:01:19;;;;;;;71.03;37.03;;;5.80;99.90;;;;;;799770;180;26423;-79
2024/02/13 00:03:46;;;;;;;370.70;160.30;;;5.80;99.90;;;;;;799474;179;26436;-79
2024/02/13 00:06:12;;;;;;;137.20;66.70;;;5.80;99.90;;;;;;800919;178;26423;-79
2024/02/13 00:08:39;;;;;;;43.20;24.17;;;5.70;99.90;;;;;;801406;178;26426;-79
2024/02/13 00:11:06;;;;;;;57.57;30.40;;;5.70;99.90;;;;;;801040;179;26963;-80
2024/02/13 00:13:32;;;;;;;39.87;21.40;;;5.70;99.90;;;;;;800765;179;26977;-79
2024/02/13 00:15:59;;;;;;;31.00;16.17;;;5.70;99.90;;;;;;800293;179;26407;-79
2024/02/13 00:18:25;;;;;;;44.77;23.00;;;5.60;99.90;;;;;;800283;179;26606;-79
2024/02/13 00:20:54;;;;;;;140.83;60.97;;;5.70;99.90;;;;;;800154;180;26438;-79
2024/02/13 00:23:19;;;;;;;276.90;123.30;;;5.70;99.90;;;;;;799888;180;26409;-79
2024/02/13 00:25:45;;;;;;;253.40;106.57;;;5.60;99.90;;;;;;799752;180;26429;-79
2024/02/13 00:28:12;;;;;;;149.13;65.30;;;5.60;99.90;;;;;;799654;179;26467;-77
2024/02/13 00:30:40;;;;;;;32.13;16.97;;;5.60;99.90;;;;;;799667;180;26438;-78
2024/02/13 00:33:05;;;;;;;56.73;29.80;;;5.50;99.90;;;;;;800098;177;26435;-79
2024/02/13 00:35:33;;;;;;;25.37;12.80;;;5.50;99.90;;;;;;800719;175;26427;-78
2024/02/13 00:38:00;;;;;;;58.53;30.27;;;5.50;99.90;;;;;;800429;180;26478;-79
2024/02/13 00:40:26;;;;;;;106.43;52.30;;;5.50;99.90;;;;;;800070;179;26436;-79
2024/02/13 00:42:53;;;;;;;69.33;33.57;;;5.50;99.90;;;;;;799626;180;26417;-78
2024/02/13 00:45:19;;;;;;;65.13;37.20;;;5.40;99.90;;;;;;799550;179;28026;-79
2024/02/13 00:47:46;;;;;;;184.37;92.17;;;5.50;99.90;;;;;;799657;179;26470;-79
2024/02/13 00:50:14;;;;;;;33.33;17.50;;;5.60;99.90;;;;;;799762;179;26403;-79
2024/02/13 00:52:42;;;;;;;176.73;68.63;;;5.50;99.90;;;;;;799505;179;26431;-78
2024/02/13 00:55:07;;;;;;;82.73;40.83;;;5.50;99.90;;;;;;799268;180;26956;-79
2024/02/13 00:57:34;;;;;;;67.17;38.20;;;5.40;99.90;;;;;;799301;180;26443;-79
2024/02/13 01:00:00;;;;;;;114.33;52.33;;;5.40;99.90;;;;;;799322;180;26422;-78
2024/02/13 01:02:27;;;;;;;132.23;62.03;;;5.40;99.90;;;;;;799435;180;26420;-79
2024/02/13 01:04:54;;;;;;;200.63;85.27;;;5.40;99.90;;;;;;800320;180;26452;-78
2024/02/13 01:07:20;;;;;;;86.00;40.30;;;5.50;99.90;;;;;;802838;177;27026;-78
2024/02/13 01:09:47;;;;;;;87.70;44.30;;;5.60;99.90;;;;;;805109;177;26431;-79
2024/02/13 01:12:14;;;;;;;89.33;47.60;;;5.60;99.90;;;;;;799340;177;26489;-78
2024/02/13 01:14:40;;;;;;;150.77;74.13;;;5.60;99.90;;;;;;798200;180;26427;-78
2024/02/13 01:17:07;;;;;;;84.43;39.10;;;5.50;99.90;;;;;;800305;177;26442;-77
2024/02/13 01:19:34;;;;;;;114.77;51.80;;;5.50;99.90;;;;;;801883;179;26443;-78
2024/02/13 01:22:00;;;;;;;53.00;28.67;;;5.40;99.90;;;;;;801125;178;26414;-78
2024/02/13 01:24:27;;;;;;;99.07;46.30;;;5.40;99.90;;;;;;800928;179;26980;-78
2024/02/13 01:26:54;;;;;;;134.60;62.50;;;5.30;99.90;;;;;;800464;175;26584;-78
2024/02/13 01:29:20;;;;;;;40.47;20.87;;;5.40;99.90;;;;;;800140;177;26426;-78
2024/02/13 01:31:47;;;;;;;60.50;32.30;;;5.40;99.90;;;;;;799819;180;26444;-77
2024/02/13 01:34:13;;;;;;;30.33;17.17;;;5.30;99.90;;;;;;799819;179;26434;-78
2024/02/13 01:36:40;;;;;;;76.67;35.87;;;5.30;99.90;;;;;;799350;180;26451;-77
2024/02/13 01:39:09;;;;;;;30.23;16.30;;;5.30;99.90;;;;;;799564;180;26419;-77
2024/02/13 01:41:35;;;;;;;34.23;17.50;;;5.30;99.90;;;;;;803273;177;26447;-78
2024/02/13 01:44:03;;;;;;;25.37;12.87;;;5.30;99.90;;;;;;811087;177;26474;-78
2024/02/13 01:46:28;;;;;;;21.27;12.20;;;5.30;99.90;;;;;;802812;177;26447;-78
2024/02/13 01:48:58;;;;;;;44.07;22.60;;;5.20;99.90;;;;;;799963;179;26416;-78
2024/02/13 01:51:27;;;;;;;46.70;22.83;;;5.20;99.90;;;;;;799897;180;26421;-78
2024/02/13 01:53:49;;;;;;;68.67;32.77;;;5.00;99.90;;;;;;799729;180;26415;-78
2024/02/13 01:56:16;;;;;;;84.07;41.00;;;5.00;99.90;;;;;;799733;179;26411;-79
2024/02/13 01:58:43;;;;;;;35.00;17.57;;;5.00;99.90;;;;;;799732;179;26475;-78
2024/02/13 02:01:14;;;;;;;17.53;11.80;;;4.90;99.90;;;;;;796101;178;26423;-77
2024/02/13 02:03:40;;;;;;;18.77;10.87;;;5.00;99.90;;;;;;799579;178;26427;-78
2024/02/13 02:06:06;;;;;;;25.37;12.63;;;5.10;99.90;;;;;;799499;180;26407;-79
2024/02/13 02:08:33;;;;;;;60.30;30.07;;;5.20;99.90;;;;;;799769;180;26519;-78
2024/02/13 02:11:00;;;;;;;26.80;15.17;;;5.20;99.90;;;;;;799776;180;26409;-78
2024/02/13 02:13:27;;;;;;;45.73;26.23;;;5.20;99.90;;;;;;799517;179;26447;-79
2024/02/13 02:15:54;;;;;;;41.97;22.13;;;5.10;99.90;;;;;;799391;177;26965;-78
2024/02/13 02:18:21;;;;;;;131.80;55.17;;;5.10;99.90;;;;;;799522;180;26486;-79
2024/02/13 02:20:47;;;;;;;130.83;57.53;;;5.10;99.90;;;;;;799400;180;26414;-80
2024/02/13 02:23:14;;;;;;;129.93;55.47;;;5.10;99.90;;;;;;799275;180;26969;-79
2024/02/13 02:25:41;;;;;;;50.60;25.03;;;5.10;99.90;;;;;;799454;180;26965;-79
2024/02/13 02:28:08;;;;;;;46.13;24.00;;;5.10;99.90;;;;;;799498;177;26516;-78
2024/02/13 02:30:34;;;;;;;26.07;13.23;;;5.10;99.90;;;;;;802226;178;26491;-79
2024/02/13 02:33:02;;;;;;;52.80;25.43;;;5.10;99.90;;;;;;801278;178;26426;-79
2024/02/13 02:35:27;;;;;;;43.53;21.40;;;5.10;99.90;;;;;;800964;178;26967;-79
2024/02/13 02:37:54;;;;;;;20.40;11.97;;;5.20;99.90;;;;;;800824;175;26516;-79
2024/02/13 02:40:20;;;;;;;19.33;11.33;;;5.20;99.90;;;;;;800435;175;26428;-78
2024/02/13 02:42:47;;;;;;;13.07;10.10;;;5.20;99.90;;;;;;800602;180;26426;-79
2024/02/13 02:45:15;;;;;;;17.87;10.43;;;5.20;99.90;;;;;;800378;180;26411;-79
2024/02/13 02:47:41;;;;;;;15.23;9.10;;;5.10;99.90;;;;;;799963;180;26674;-79
2024/02/13 02:50:10;;;;;;;15.27;8.37;;;5.10;99.90;;;;;;799748;177;26415;-78
2024/02/13 02:52:34;;;;;;;12.43;8.10;;;5.20;99.90;;;;;;799188;177;26422;-77
2024/02/13 02:55:01;;;;;;;12.90;8.23;;;5.20;99.90;;;;;;801440;170;27008;-76
2024/02/13 02:57:27;;;;;;;16.00;9.83;;;5.20;99.90;;;;;;807707;176;26440;-76
2024/02/13 02:59:54;;;;;;;17.80;9.60;;;5.30;99.90;;;;;;806150;176;26504;-77
2024/02/13 03:02:20;;;;;;;15.00;8.73;;;5.40;99.90;;;;;;809626;173;26470;-76
2024/02/13 03:04:49;;;;;;;13.80;9.30;;;5.40;99.90;;;;;;812690;173;26639;-76
2024/02/13 03:07:14;;;;;;;14.93;10.27;;;5.40;99.90;;;;;;816064;173;26453;-76
2024/02/13 03:09:40;;;;;;;20.07;12.03;;;5.30;99.90;;;;;;808236;174;26465;-77
2024/02/13 03:12:07;;;;;;;19.70;10.53;;;5.30;99.90;;;;;;810843;173;27016;-76
2024/02/13 03:14:34;;;;;;;16.60;10.53;;;5.20;99.90;;;;;;810936;173;26995;-76
2024/02/13 03:17:00;;;;;;;18.53;10.20;;;5.20;99.90;;;;;;809515;173;26520;-76
2024/02/13 03:19:27;;;;;;;91.70;46.63;;;5.10;99.90;;;;;;813407;174;26446;-75
2024/02/13 03:21:54;;;;;;;74.03;37.77;;;5.20;99.90;;;;;;811004;173;26486;-75
2024/02/13 03:24:20;;;;;;;52.17;27.97;;;5.10;99.90;;;;;;813095;173;26426;-75
2024/02/13 03:26:47;;;;;;;39.07;20.87;;;5.10;99.90;;;;;;812189;173;26497;-77
2024/02/13 03:29:13;;;;;;;23.47;16.00;;;5.00;99.90;;;;;;818534;173;26426;-77
2024/02/13 03:31:40;;;;;;;50.97;29.57;;;5.20;99.90;;;;;;817765;173;26958;-77
2024/02/13 03:34:07;;;;;;;27.77;16.17;;;5.20;99.90;;;;;;810673;173;26461;-77
2024/02/13 03:36:34;;;;;;;25.43;15.43;;;5.20;99.90;;;;;;814428;173;27020;-77
2024/02/13 03:39:00;;;;;;;24.43;13.93;;;5.20;99.90;;;;;;813985;173;26455;-76
2024/02/13 03:41:26;;;;;;;30.43;16.50;;;5.20;99.90;;;;;;819444;173;26445;-77
2024/02/13 03:43:53;;;;;;;15.33;11.80;;;5.20;99.90;;;;;;813430;173;26416;-77
2024/02/13 03:46:21;;;;;;;15.80;11.57;;;5.30;99.90;;;;;;818467;173;26615;-77
2024/02/13 03:48:46;;;;;;;21.87;12.37;;;5.30;99.90;;;;;;816405;173;28728;-76
2024/02/13 03:51:13;;;;;;;16.07;11.20;;;5.40;99.90;;;;;;818970;172;27087;-77
2024/02/13 03:53:39;;;;;;;19.33;11.90;;;5.50;99.90;;;;;;821534;173;26459;-76
2024/02/13 03:56:06;;;;;;;22.07;12.37;;;5.40;99.90;;;;;;818598;172;27148;-76
2024/02/13 03:58:33;;;;;;;21.17;12.83;;;5.40;99.90;;;;;;812201;173;26428;-76
2024/02/13 04:00:59;;;;;;;18.33;11.53;;;5.40;99.90;;;;;;815749;173;26440;-76
2024/02/13 04:03:26;;;;;;;19.10;11.40;;;5.40;99.90;;;;;;815026;173;26963;-76
2024/02/13 04:05:53;;;;;;;19.47;11.33;;;5.40;99.90;;;;;;813166;170;26416;-75
2024/02/13 04:08:19;;;;;;;16.23;10.77;;;5.40;99.90;;;;;;811124;173;26429;-76
2024/02/13 04:10:46;;;;;;;16.73;11.50;;;5.40;99.90;;;;;;816967;173;26414;-76
2024/02/13 04:13:12;;;;;;;18.00;11.93;;;5.40;99.90;;;;;;811009;173;26439;-76
2024/02/13 04:15:39;;;;;;;14.87;10.87;;;5.40;99.90;;;;;;816516;173;27004;-76
2024/02/13 04:18:07;;;;;;;16.97;11.00;;;5.50;99.90;;;;;;812697;173;26502;-76
2024/02/13 04:20:33;;;;;;;16.40;10.97;;;5.40;99.90;;;;;;816479;173;26988;-77
2024/02/13 04:23:01;;;;;;;14.30;10.67;;;5.40;99.90;;;;;;811170;173;26395;-76
2024/02/13 04:25:26;;;;;;;16.73;10.63;;;5.30;99.90;;;;;;819864;173;26423;-77
2024/02/13 04:27:53;;;;;;;19.97;11.37;;;5.30;99.90;;;;;;818240;173;26414;-76
2024/02/13 04:30:20;;;;;;;14.53;10.50;;;5.30;99.90;;;;;;816517;173;26415;-77
2024/02/13 04:32:46;;;;;;;16.33;10.37;;;5.30;99.90;;;;;;827347;173;26424;-76
2024/02/13 04:35:13;;;;;;;15.33;9.83;;;5.30;99.90;;;;;;807825;173;26433;-76
2024/02/13 04:37:40;;;;;;;14.43;10.17;;;5.30;99.90;;;;;;813428;173;26400;-77
2024/02/13 04:40:08;;;;;;;15.13;9.97;;;5.30;99.90;;;;;;822525;173;26423;-76
2024/02/13 04:42:33;;;;;;;15.20;9.60;;;5.30;99.90;;;;;;813246;174;26569;-76
2024/02/13 04:45:00;;;;;;;12.10;8.83;;;5.20;99.90;;;;;;808342;173;26429;-76
2024/02/13 04:47:28;;;;;;;14.03;9.67;;;5.30;99.90;;;;;;818762;173;26973;-76
2024/02/13 04:49:57;;;;;;;13.07;8.97;;;5.20;99.90;;;;;;818248;173;26431;-76
2024/02/13 04:52:24;;;;;;;12.93;8.47;;;5.20;99.90;;;;;;808774;172;26437;-76
2024/02/13 04:54:50;;;;;;;13.60;8.40;;;5.20;99.90;;;;;;818049;172;26434;-77
2024/02/13 04:57:17;;;;;;;15.57;8.67;;;5.30;99.90;;;;;;812813;172;26640;-77
2024/02/13 04:59:48;;;;;;;12.97;9.67;;;5.20;99.90;;;;;;819766;172;26411;-77
2024/02/13 05:02:16;;;;;;;15.43;8.73;;;5.10;99.90;;;;;;812621;172;27008;-77
2024/02/13 05:07:19;;;;;;;12.30;8.13;;;5.00;99.90;;;;;;812356;173;26410;-76
2024/02/13 05:09:46;;;;;;;11.40;7.17;;;5.10;99.90;;;;;;814263;173;26414;-77
2024/02/13 05:12:14;;;;;;;10.67;7.43;;;5.10;99.90;;;;;;820054;173;26390;-77
2024/02/13 05:14:39;;;;;;;7.90;6.77;;;5.20;99.90;;;;;;817736;173;26458;-77
2024/02/13 05:17:06;;;;;;;8.17;6.33;;;5.10;99.90;;;;;;813392;173;26955;-77
2024/02/13 05:19:32;;;;;;;12.10;6.43;;;5.10;99.90;;;;;;811089;173;26453;-77
2024/02/13 05:21:59;;;;;;;11.00;6.17;;;5.10;99.90;;;;;;810634;173;27069;-76
2024/02/13 05:24:26;;;;;;;7.63;5.40;;;5.00;99.90;;;;;;804890;175;26427;-77
2024/02/13 05:26:53;;;;;;;6.57;4.97;;;4.90;99.90;;;;;;804066;175;26443;-77
2024/02/13 05:29:19;;;;;;;6.97;4.83;;;4.90;99.90;;;;;;802682;175;26991;-77
2024/02/13 05:31:45;;;;;;;5.63;4.03;;;5.10;99.90;;;;;;805316;174;26474;-77
2024/02/13 05:34:12;;;;;;;8.13;4.43;;;5.10;99.90;;;;;;811921;173;26536;-76
2024/02/13 05:36:39;;;;;;;5.33;3.80;;;5.10;99.90;;;;;;812109;173;26423;-77
2024/02/13 05:39:05;;;;;;;5.03;3.90;;;5.00;99.90;;;;;;815789;173;26423;-77
2024/02/13 05:41:32;;;;;;;6.57;3.93;;;5.00;99.90;;;;;;814913;172;26445;-77
2024/02/13 05:44:02;;;;;;;7.03;3.90;;;5.00;99.90;;;;;;819441;173;26411;-77
2024/02/13 05:46:25;;;;;;;7.80;4.00;;;4.90;99.90;;;;;;810901;173;26992;-76
2024/02/13 05:48:54;;;;;;;7.23;3.53;;;4.90;99.90;;;;;;816702;173;26404;-76
2024/02/13 05:51:18;;;;;;;4.60;3.77;;;5.00;99.90;;;;;;817541;173;26417;-77
2024/02/13 05:53:45;;;;;;;6.57;3.83;;;5.00;99.90;;;;;;816004;173;26411;-77
2024/02/13 05:56:12;;;;;;;5.40;4.00;;;4.90;99.90;;;;;;816861;173;27030;-77
2024/02/13 05:58:39;;;;;;;5.50;3.60;;;4.80;99.90;;;;;;812348;173;26401;-76
2024/02/13 06:01:05;;;;;;;6.47;3.63;;;4.90;99.90;;;;;;818766;173;26441;-76
2024/02/13 06:03:32;;;;;;;5.80;3.53;;;4.90;99.90;;;;;;814249;171;26402;-77
2024/02/13 06:05:58;;;;;;;6.90;3.90;;;4.90;99.90;;;;;;813335;172;26990;-76
2024/02/13 06:08:25;;;;;;;5.27;3.40;;;4.80;99.90;;;;;;809361;176;26430;-76
2024/02/13 06:10:52;;;;;;;5.70;4.40;;;4.90;99.90;;;;;;808040;176;26447;-76
2024/02/13 06:13:18;;;;;;;8.17;3.70;;;4.90;99.90;;;;;;806236;176;26472;-74
2024/02/13 06:15:45;;;;;;;6.43;4.20;;;4.90;99.90;;;;;;806568;177;26580;-76
2024/02/13 06:18:11;;;;;;;5.57;3.80;;;4.80;99.90;;;;;;777998;180;27042;-76
2024/02/13 06:20:38;;;;;;;7.93;3.77;;;4.80;99.90;;;;;;806760;177;26398;-76
2024/02/13 06:23:05;;;;;;;6.60;3.20;;;4.80;99.90;;;;;;806958;172;26425;-76
2024/02/13 06:25:31;;;;;;;6.00;3.20;;;4.80;99.90;;;;;;805800;174;26410;-77
2024/02/13 06:27:58;;;;;;;5.60;3.50;;;4.80;99.90;;;;;;804459;177;26420;-76
2024/02/13 06:30:25;;;;;;;5.67;3.50;;;4.80;99.90;;;;;;808153;176;26735;-76
2024/02/13 06:32:51;;;;;;;7.83;3.60;;;4.80;99.90;;;;;;814729;173;26431;-76
2024/02/13 06:35:18;;;;;;;8.63;3.30;;;4.70;99.90;;;;;;805572;173;26417;-77
2024/02/13 06:37:44;;;;;;;6.23;3.37;;;4.70;99.90;;;;;;810924;173;26426;-77
2024/02/13 06:40:11;;;;;;;5.77;3.50;;;4.80;99.90;;;;;;811221;173;27504;-77
2024/02/13 06:42:38;;;;;;;6.77;3.40;;;4.70;99.90;;;;;;812170;173;26409;-77
2024/02/13 06:45:05;;;;;;;8.30;4.03;;;4.70;99.90;;;;;;808109;173;26439;-77
2024/02/13 06:47:32;;;;;;;8.17;4.00;;;4.70;99.90;;;;;;807965;173;26411;-76
2024/02/13 06:50:00;;;;;;;8.37;4.00;;;4.70;99.90;;;;;;817158;173;26477;-76
2024/02/13 06:52:25;;;;;;;7.20;3.97;;;4.80;99.90;;;;;;817178;174;26560;-77
2024/02/13 06:54:51;;;;;;;7.80;4.07;;;4.80;99.90;;;;;;818618;173;27003;-76
2024/02/13 06:57:18;;;;;;;7.53;3.50;;;4.80;99.90;;;;;;814082;173;26479;-76
2024/02/13 06:59:45;;;;;;;10.30;3.80;;;4.70;99.90;;;;;;816102;173;26965;-77
2024/02/13 07:02:12;;;;;;;8.37;4.20;;;4.80;99.90;;;;;;810718;173;26449;-76
2024/02/13 07:04:38;;;;;;;10.53;3.90;;;4.80;99.90;;;;;;814930;173;26924;-77
2024/02/13 07:07:05;;;;;;;8.40;3.37;;;4.70;99.90;;;;;;810516;173;26426;-77
2024/02/13 07:09:31;;;;;;;9.13;4.20;;;4.80;99.90;;;;;;810557;173;26407;-77
2024/02/13 07:11:58;;;;;;;6.30;3.60;;;4.80;99.90;;;;;;812845;173;26973;-77
2024/02/13 07:14:24;;;;;;;8.87;3.80;;;4.80;99.90;;;;;;815691;173;26525;-75
2024/02/13 07:16:51;;;;;;;5.40;3.40;;;4.90;99.90;;;;;;819201;172;26964;-76
2024/02/13 07:19:17;;;;;;;7.20;3.03;;;4.90;99.90;;;;;;813590;172;26420;-77
2024/02/13 07:21:44;;;;;;;7.83;3.23;;;5.00;99.90;;;;;;818295;172;28071;-77
2024/02/13 07:24:11;;;;;;;7.53;3.60;;;5.00;99.90;;;;;;814682;173;26414;-77
2024/02/13 07:26:37;;;;;;;5.70;3.03;;;5.00;99.90;;;;;;818004;172;28091;-76
2024/02/13 07:29:04;;;;;;;4.27;2.97;;;5.10;99.90;;;;;;808818;172;26474;-77
2024/02/13 07:31:33;;;;;;;5.87;3.10;;;5.10;99.90;;;;;;815168;172;26461;-77
2024/02/13 07:33:57;;;;;;;4.37;2.90;;;5.10;99.90;;;;;;817099;173;26966;-77
2024/02/13 07:36:24;;;;;;;6.07;2.80;;;5.10;99.90;;;;;;813145;173;26456;-75
2024/02/13 07:38:51;;;;;;;3.83;2.60;;;5.10;99.90;;;;;;812353;173;26403;-75
2024/02/13 07:41:17;;;;;;;6.67;3.30;;;5.10;99.90;;;;;;815731;173;26404;-77
2024/02/13 07:43:44;;;;;;;8.77;3.10;;;5.10;99.90;;;;;;816622;173;26477;-78
2024/02/13 07:46:11;;;;;;;4.60;2.73;;;5.20;99.90;;;;;;816602;169;26436;-77
2024/02/13 07:48:37;;;;;;;8.43;3.13;;;5.30;99.90;;;;;;812803;173;26960;-77
2024/02/13 07:51:04;;;;;;;7.37;3.23;;;5.30;99.90;;;;;;810782;173;26402;-74
2024/02/13 07:53:31;;;;;;;6.37;3.10;;;5.40;99.90;;;;;;820668;173;26936;-77
2024/02/13 07:55:59;;;;;;;8.93;2.97;;;5.50;99.90;;;;;;816231;170;26435;-76
2024/02/13 07:58:24;;;;;;;4.83;2.93;;;5.40;99.90;;;;;;809816;173;26474;-77
2024/02/13 08:00:50;;;;;;;4.60;3.30;;;5.50;99.90;;;;;;813443;173;26398;-75
2024/02/13 08:03:17;;;;;;;6.07;2.90;;;5.50;99.90;;;;;;812486;173;26490;-77
2024/02/13 08:05:45;;;;;;;6.93;2.93;;;5.60;99.90;;;;;;814071;173;26423;-76
2024/02/13 08:08:10;;;;;;;9.67;3.70;;;5.70;99.90;;;;;;815329;173;26430;-77
2024/02/13 08:10:37;;;;;;;6.90;3.80;;;5.80;99.90;;;;;;807332;173;26729;-76
2024/02/13 08:13:04;;;;;;;7.47;3.80;;;5.80;99.90;;;;;;809818;173;26468;-77
2024/02/13 08:15:30;;;;;;;10.80;3.67;;;5.80;99.60;;;;;;813663;173;26817;-77
2024/02/13 08:17:58;;;;;;;6.60;3.30;;;5.90;99.90;;;;;;812393;173;26529;-77
2024/02/13 08:20:23;;;;;;;8.53;3.23;;;6.00;99.60;;;;;;807971;173;26415;-77
2024/02/13 08:22:50;;;;;;;10.10;4.43;;;6.00;99.40;;;;;;815375;173;26463;-76
2024/02/13 08:25:16;;;;;;;7.07;3.77;;;6.10;99.50;;;;;;814864;173;26418;-75
2024/02/13 08:27:43;;;;;;;10.73;3.50;;;6.20;99.00;;;;;;815474;172;26570;-77
2024/02/13 08:30:10;;;;;;;7.50;3.27;;;6.30;99.30;;;;;;817327;172;26417;-78
2024/02/13 08:32:39;;;;;;;6.93;3.50;;;6.40;98.80;;;;;;811560;172;26402;-78
2024/02/13 08:35:05;;;;;;;8.33;3.70;;;6.50;98.80;;;;;;814422;172;26446;-74
2024/02/13 08:37:31;;;;;;;4.47;3.07;;;6.80;99.90;;;;;;816002;172;26406;-74
2024/02/13 08:39:58;;;;;;;6.40;3.77;;;7.00;98.00;;;;;;816290;172;27063;-73
2024/02/13 08:42:24;;;;;;;5.17;3.13;;;7.10;97.70;;;;;;814523;172;26416;-74
2024/02/13 08:44:52;;;;;;;7.30;3.40;;;7.10;96.70;;;;;;817323;170;26983;-77
2024/02/13 08:47:18;;;;;;;9.10;3.97;;;7.00;96.40;;;;;;811798;173;26454;-77
2024/02/13 08:49:44;;;;;;;5.43;3.43;;;7.00;97.30;;;;;;814304;173;26938;-76
2024/02/13 08:52:11;;;;;;;7.10;3.43;;;6.90;96.40;;;;;;815171;173;26440;-76
2024/02/13 08:54:38;;;;;;;6.03;3.17;;;6.90;96.40;;;;;;819479;173;26417;-77
2024/02/13 08:57:08;;;;;;;7.40;3.47;;;7.00;96.40;;;;;;803510;173;26496;-80
2024/02/13 08:59:36;;;;;;;6.67;2.87;;;7.10;96.40;;;;;;784955;181;26449;-78
2024/02/13 09:02:04;;;;;;;7.57;3.80;;;7.10;96.20;;;;;;784791;182;26441;-80
2024/02/13 09:04:30;;;;;;;7.70;3.10;;;7.10;96.10;;;;;;787571;181;26448;-80
2024/02/13 09:06:57;;;;;;;3.43;2.80;;;7.10;96.00;;;;;;788584;180;26464;-78
2024/02/13 09:09:25;;;;;;;3.90;2.90;;;7.20;95.70;;;;;;783580;181;26457;-76
2024/02/13 09:11:50;;;;;;;5.80;3.00;;;7.20;95.30;;;;;;790176;181;26485;-78
2024/02/13 09:14:18;;;;;;;6.03;2.83;;;7.30;95.60;;;;;;789537;180;27070;-80
2024/02/13 09:16:43;;;;;;;4.47;2.77;;;7.30;95.10;;;;;;783421;179;26650;-80
2024/02/13 09:19:10;;;;;;;8.93;3.53;;;7.30;95.00;;;;;;786473;181;27262;-79
2024/02/13 09:21:37;;;;;;;6.20;3.10;;;7.40;94.90;;;;;;784884;181;26461;-76
2024/02/13 09:24:04;;;;;;;4.57;3.00;;;7.50;94.90;;;;;;788976;181;27070;-79
2024/02/13 09:26:30;;;;;;;7.63;2.37;;;7.60;94.70;;;;;;784956;178;26481;-79
2024/02/13 09:28:58;;;;;;;7.20;3.00;;;7.70;94.50;;;;;;788766;181;26447;-79
2024/02/13 09:31:23;;;;;;;4.03;2.30;;;7.70;94.40;;;;;;790039;181;26459;-80
2024/02/13 09:33:50;;;;;;;6.73;2.80;;;7.80;94.30;;;;;;789033;180;26471;-81
2024/02/13 09:36:20;;;;;;;6.57;2.83;;;7.90;94.40;;;;;;790436;181;26640;-78
2024/02/13 09:38:44;;;;;;;4.90;2.70;;;8.00;94.10;;;;;;791644;179;26458;-79
2024/02/13 09:41:12;;;;;;;26.80;11.70;;;8.10;93.80;;;;;;791407;177;26447;-80
2024/02/13 09:43:38;;;;;;;11.93;6.83;;;8.10;93.60;;;;;;790043;176;26440;-81
2024/02/13 09:46:05;;;;;;;6.60;3.53;;;8.20;93.50;;;;;;785574;177;26507;-80
2024/02/13 09:48:32;;;;;;;8.57;4.03;;;8.20;93.50;;;;;;791443;174;26641;-80
2024/02/13 09:50:58;;;;;;;7.67;3.27;;;8.30;93.30;;;;;;791697;181;26465;-80
2024/02/13 09:53:26;;;;;;;3.90;2.40;;;8.40;94.20;;;;;;785653;181;26457;-78
2024/02/13 09:55:54;;;;;;;5.50;3.13;;;8.30;92.90;;;;;;792261;181;26472;-78
2024/02/13 09:58:20;;;;;;;5.67;2.37;;;8.30;92.90;;;;;;784481;181;26455;-79
2024/02/13 10:00:47;;;;;;;5.90;2.90;;;8.30;92.70;;;;;;785328;177;27027;-81
2024/02/13 10:03:13;;;;;;;7.07;3.10;;;8.40;92.60;;;;;;790013;180;26457;-79
2024/02/13 10:05:40;;;;;;;5.30;2.90;;;8.40;92.70;;;;;;789053;178;26469;-77
2024/02/13 10:08:07;;;;;;;5.77;2.50;;;8.40;92.50;;;;;;785529;181;26481;-80
2024/02/13 10:10:33;;;;;;;5.77;2.30;;;8.40;92.40;;;;;;785539;181;26453;-79
2024/02/13 10:13:00;;;;;;;4.27;2.40;;;8.40;92.30;;;;;;786068;181;26470;-79
2024/02/13 10:15:38;;;;;;;5.77;3.20;;;8.50;92.10;;;;;;789290;181;26461;-80
2024/02/13 10:18:03;;;;;;;2.53;1.83;;;8.60;91.80;;;;;;785378;181;27070;-80
2024/02/13 10:20:30;;;;;;;5.40;2.30;;;8.60;91.90;;;;;;788620;181;27072;-79
2024/02/13 10:23:00;;;;;;;7.30;2.73;;;8.60;92.00;;;;;;785980;180;26476;-77
2024/02/13 10:25:23;;;;;;;7.67;3.17;;;8.60;92.00;;;;;;782250;181;26489;-79
2024/02/13 10:27:49;;;;;;;7.13;2.30;;;8.60;92.00;;;;;;784981;181;26665;-79
2024/02/13 10:30:24;;;;;;;5.17;2.37;;;8.60;91.70;;;;;;772312;181;26463;-77
2024/02/13 10:32:51;;;;;;;8.97;2.70;;;8.70;92.20;;;;;;785813;181;26462;-79
2024/02/13 10:35:19;;;;;;;4.70;2.47;;;8.90;92.00;;;;;;784146;181;26464;-78
2024/02/13 10:37:44;;;;;;;5.77;2.70;;;9.00;91.40;;;;;;782750;181;28110;-79
2024/02/13 10:40:10;;;;;;;4.67;2.30;;;9.10;91.40;;;;;;788055;178;26461;-79
2024/02/13 10:42:38;;;;;;;6.13;2.30;;;9.10;90.90;;;;;;787364;180;28121;-79
2024/02/13 10:45:06;;;;;;;6.07;4.10;;;9.20;90.90;;;;;;789630;177;26518;-79
2024/02/13 10:47:32;;;;;;;9.00;3.23;;;9.20;91.10;;;;;;782395;181;26460;-78
2024/02/13 10:49:59;;;;;;;7.03;3.57;;;9.30;91.20;;;;;;783147;181;26452;-79
2024/02/13 10:52:25;;;;;;;7.03;3.33;;;9.30;90.70;;;;;;791004;178;26477;-78
2024/02/13 10:54:52;;;;;;;7.10;2.47;;;9.50;90.60;;;;;;786921;181;26517;-78
2024/02/13 10:57:18;;;;;;;3.97;1.83;;;9.40;89.80;;;;;;786840;179;26508;-78
2024/02/13 10:59:45;;;;;;;4.03;2.60;;;9.40;89.70;;;;;;788664;181;26472;-79
2024/02/13 11:02:14;;;;;;;10.50;5.73;;;11.00;85.40;;;;;;787592;181;27021;-80
2024/02/13 11:04:43;;;;;;;19.47;10.07;;;12.50;75.40;;;;;;786079;181;26450;-79
2024/02/13 11:07:06;;;;;;;22.63;12.73;;;13.00;70.30;;;;;;786828;181;26479;-78
2024/02/13 11:09:32;;;;;;;9.50;5.83;;;12.10;73.70;;;;;;784891;178;26537;-79
2024/02/13 11:11:59;;;;;;;28.97;15.40;;;12.40;73.50;;;;;;787211;181;26492;-79
2024/02/13 11:14:26;;;;;;;66.87;33.93;;;12.70;70.50;;;;;;784400;181;26479;-79
2024/02/13 11:16:56;;;;;;;45.17;23.63;;;13.20;67.50;;;;;;788834;180;26496;-79
2024/02/13 11:19:24;;;;;;;20.37;10.77;;;13.50;65.80;;;;;;790736;179;27001;-80
2024/02/13 11:21:51;;;;;;;12.63;6.27;;;13.80;61.80;;;;;;784550;179;26456;-79
2024/02/13 11:24:21;;;;;;;26.60;14.17;;;13.20;66.70;;;;;;787344;179;26683;-79
2024/02/13 11:26:47;;;;;;;17.00;10.20;;;14.00;68.10;;;;;;780398;180;26469;-78
2024/02/13 11:29:15;;;;;;;8.87;5.03;;;14.60;59.10;;;;;;783348;181;26464;-79
2024/02/13 11:31:42;;;;;;;12.40;7.43;;;14.10;63.10;;;;;;782828;181;26453;-79
2024/02/13 11:34:08;;;;;;;28.13;14.10;;;14.80;57.50;;;;;;784743;181;26622;-79
2024/02/13 11:36:35;;;;;;;175.33;79.43;;;14.20;58.20;;;;;;787440;181;28104;-79
2024/02/13 11:39:04;;;;;;;23.40;11.50;;;13.70;60.70;;;;;;786940;181;26465;-80
2024/02/13 11:41:30;;;;;;;32.77;17.27;;;13.80;61.60;;;;;;787907;177;26567;-79
2024/02/13 11:44:12;;;;;;;9.40;5.77;;;13.40;63.40;;;;;;784434;181;26480;-78
2024/02/13 11:46:41;;;;;;;9.07;4.23;;;12.40;66.90;;;;;;783983;181;26480;-78
2024/02/13 11:49:09;;;;;;;19.57;10.27;;;11.80;71.10;;;;;;785864;180;27034;-79
2024/02/13 11:51:36;;;;;;;4.67;2.80;;;11.40;73.60;;;;;;783561;181;26481;-79
2024/02/13 11:54:01;;;;;;;6.60;2.80;;;11.10;75.70;;;;;;786821;181;26625;-79
2024/02/13 11:56:28;;;;;;;6.67;3.23;;;10.80;76.30;;;;;;787351;179;26480;-80
2024/02/13 11:58:57;;;;;;;8.97;4.17;;;10.80;79.00;;;;;;788773;181;27022;-77
2024/02/13 12:01:25;;;;;;;7.83;3.33;;;10.60;81.40;;;;;;787914;179;26456;-79
2024/02/13 12:03:49;;;;;;;11.93;7.60;;;11.00;82.80;;;;;;792812;178;26479;-80
2024/02/13 12:06:15;;;;;;;15.20;8.93;;;11.70;73.90;;;;;;789306;174;26448;-80
2024/02/13 12:08:41;;;;;;;41.60;20.43;;;11.40;74.20;;;;;;786953;180;26457;-80
2024/02/13 12:11:08;;;;;;;14.40;7.67;;;11.30;74.50;;;;;;788906;180;26455;-79
2024/02/13 12:13:34;;;;;;;19.83;9.83;;;11.60;76.70;;;;;;786004;181;26469;-80
2024/02/13 12:16:02;;;;;;;10.30;5.93;;;13.20;69.60;;;;;;787676;181;26476;-80
2024/02/13 12:18:29;;;;;;;20.83;11.00;;;14.00;63.30;;;;;;791699;179;26455;-78
2024/02/13 12:20:54;;;;;;;14.77;7.33;;;15.50;63.80;;;;;;789366;181;26457;-80
2024/02/13 12:23:21;;;;;;;8.03;3.97;;;16.70;54.50;;;;;;784625;177;26514;-81
2024/02/13 12:25:49;;;;;;;20.43;9.97;;;16.40;46.30;;;;;;790822;181;27077;-78
2024/02/13 12:28:15;;;;;;;43.63;20.87;;;16.40;46.90;;;;;;793453;179;28269;-80
2024/02/13 12:30:41;;;;;;;20.63;12.77;;;16.50;46.60;;;;;;783493;181;26460;-81
2024/02/13 12:33:09;;;;;;;45.27;26.23;;;16.00;44.20;;;;;;786859;180;26612;-80
2024/02/13 12:35:36;;;;;;;43.83;24.47;;;16.30;44.90;;;;;;787314;181;26469;-80
2024/02/13 12:38:11;;;;;;;119.23;57.00;;;16.20;45.20;;;;;;785639;181;26504;-81
2024/02/13 12:40:35;;;;;;;13.40;7.47;;;16.30;43.60;;;;;;785713;179;26448;-82
2024/02/13 12:43:02;;;;;;;9.27;3.93;;;15.50;46.10;;;;;;787084;181;26443;-82
2024/02/13 12:45:30;;;;;;;4.00;2.40;;;14.70;47.90;;;;;;781735;178;26452;-80